createdAt,value
2023-01-06T00:00:18.856Z,960.7600098
2023-01-06T00:01:19.584Z,960.800293
2023-01-06T00:02:20.588Z,960.7630615
2023-01-06T00:03:21.341Z,960.7771606
2023-01-06T00:04:22.212Z,960.743042
2023-01-06T00:05:23.873Z,960.7312622
2023-01-06T00:06:25.421Z,960.7487793
2023-01-06T00:07:26.415Z,960.7185059
2023-01-06T00:08:27.219Z,960.7160034
2023-01-06T00:09:28.065Z,960.6765747
2023-01-06T00:10:29.117Z,960.6768188
2023-01-06T00:11:30.152Z,960.6174927
2023-01-06T00:12:31.081Z,960.6565552
2023-01-06T00:13:31.917Z,960.6409912
2023-01-06T00:14:32.710Z,960.6223145
2023-01-06T00:15:34.581Z,960.6260376
2023-01-06T00:16:35.528Z,960.6442871
2023-01-06T00:17:36.432Z,960.6056519
2023-01-06T00:18:38.457Z,960.5737305
2023-01-06T00:19:39.278Z,960.6160278
2023-01-06T00:20:40.063Z,960.6515503
2023-01-06T00:21:40.896Z,960.6398315
2023-01-06T00:22:41.791Z,960.6422119
2023-01-06T00:23:42.813Z,960.6590576
2023-01-06T00:24:43.663Z,960.6196899
2023-01-06T00:25:45.313Z,960.6695557
2023-01-06T00:26:46.655Z,960.6470337
2023-01-06T00:28:17.942Z,960.6738892
2023-01-06T00:29:18.876Z,960.6590576
2023-01-06T00:30:19.747Z,960.6931152
2023-01-06T00:31:20.646Z,960.711853
2023-01-06T00:32:21.427Z,960.7012329
2023-01-06T00:33:22.401Z,960.7525024
2023-01-06T00:34:23.428Z,960.7106323
2023-01-06T00:35:24.908Z,960.7203369
2023-01-06T00:36:25.712Z,960.6928101
2023-01-06T00:37:26.547Z,960.6901855
2023-01-06T00:38:27.687Z,960.6392212
2023-01-06T00:39:28.589Z,960.6531982
2023-01-06T00:40:29.412Z,960.6854858
2023-01-06T00:41:30.247Z,960.6490479
2023-01-06T00:42:31.933Z,960.6378174
2023-01-06T00:43:32.840Z,960.621582
2023-01-06T00:44:33.763Z,960.5960693
2023-01-06T00:45:35.475Z,960.6018677
2023-01-06T00:46:36.505Z,960.5932617
2023-01-06T00:47:37.193Z,960.585022
2023-01-06T00:48:38.095Z,960.6068726
2023-01-06T00:49:39.018Z,960.6205444
2023-01-06T00:50:40.436Z,960.6191406
2023-01-06T00:51:41.332Z,960.6548462
2023-01-06T00:52:42.081Z,960.6777954
2023-01-06T00:53:43.002Z,960.6588135
2023-01-06T00:54:43.912Z,960.6575928
2023-01-06T00:55:45.416Z,960.6942139
2023-01-06T00:57:16.933Z,960.6617432
2023-01-06T00:58:17.815Z,960.6603394
2023-01-06T00:59:18.675Z,960.6873169
2023-01-06T01:00:19.583Z,960.6623535
2023-01-06T01:01:20.695Z,960.6560669
2023-01-06T01:02:21.667Z,960.6375122
2023-01-06T01:03:22.168Z,960.6521606
2023-01-06T01:04:22.978Z,960.654541
2023-01-06T01:05:24.457Z,960.7056274
2023-01-06T01:06:25.357Z,960.6827393
2023-01-06T01:07:26.251Z,960.7005615
2023-01-06T01:08:27.089Z,960.7562256
2023-01-06T01:09:28.128Z,960.7398682
2023-01-06T01:10:29.049Z,960.7288818
2023-01-06T01:11:30.954Z,960.7647095
2023-01-06T01:12:32.025Z,960.7564697
2023-01-06T01:13:32.888Z,960.7762451
2023-01-06T01:14:33.666Z,960.7732544
2023-01-06T01:15:35.519Z,960.7463379
2023-01-06T01:16:36.454Z,960.7234497
2023-01-06T01:17:37.405Z,960.7662354
2023-01-06T01:18:38.318Z,960.7756958
2023-01-06T01:19:39.866Z,960.7578125
2023-01-06T01:20:40.836Z,960.7485962
2023-01-06T01:21:42.424Z,960.7456055
2023-01-06T01:22:43.295Z,960.7249146
2023-01-06T01:23:44.112Z,960.7229614
2023-01-06T01:24:44.914Z,960.7577515
2023-01-06T01:26:17.381Z,960.7441406
2023-01-06T01:27:18.305Z,960.8064575
2023-01-06T01:28:19.161Z,960.7884521
2023-01-06T01:29:19.931Z,960.8412476
2023-01-06T01:30:20.686Z,960.8435669
2023-01-06T01:31:21.599Z,960.8254395
2023-01-06T01:32:22.458Z,960.8413086
2023-01-06T01:33:23.942Z,960.8410645
2023-01-06T01:34:24.826Z,960.8203125
2023-01-06T01:35:25.570Z,960.8012695
2023-01-06T01:36:27.353Z,960.8150024
2023-01-06T01:37:28.255Z,960.8192749
2023-01-06T01:38:29.202Z,960.7941895
2023-01-06T01:39:29.992Z,960.8242798
2023-01-06T01:40:30.806Z,960.8409424
2023-01-06T01:41:31.581Z,960.8218994
2023-01-06T01:42:32.450Z,960.8468628
2023-01-06T01:43:33.444Z,960.8778687
2023-01-06T01:44:34.250Z,960.8389282
2023-01-06T01:45:35.899Z,960.9193726
2023-01-06T01:46:36.863Z,960.8658447
2023-01-06T01:47:37.557Z,960.9233398
2023-01-06T01:48:38.523Z,960.8764038
2023-01-06T01:49:39.448Z,960.9035645
2023-01-06T01:50:40.345Z,960.9023438
2023-01-06T01:51:41.784Z,960.9138794
2023-01-06T01:52:42.590Z,960.9146118
2023-01-06T01:53:43.500Z,960.9197388
2023-01-06T01:54:44.463Z,960.9573364
2023-01-06T01:56:16.770Z,960.9470215
2023-01-06T01:57:17.687Z,960.9734497
2023-01-06T01:58:18.629Z,960.9595337
2023-01-06T01:59:19.551Z,960.9885254
2023-01-06T02:00:21.502Z,960.9682617
2023-01-06T02:01:22.535Z,960.9682617
2023-01-06T02:02:23.293Z,960.8827515
2023-01-06T02:03:23.917Z,960.9612427
2023-01-06T02:04:24.975Z,960.9559326
2023-01-06T02:05:25.844Z,960.9359131
2023-01-06T02:06:27.397Z,960.9124146
2023-01-06T02:07:28.137Z,960.93573
2023-01-06T02:08:28.927Z,960.9504395
2023-01-06T02:09:29.922Z,960.9104614
2023-01-06T02:10:30.727Z,960.9190674
2023-01-06T02:11:31.641Z,960.8829956
2023-01-06T02:12:32.470Z,960.8537598
2023-01-06T02:13:33.266Z,960.892334
2023-01-06T02:14:34.125Z,960.8776855
2023-01-06T02:15:35.030Z,960.8512573
2023-01-06T02:16:36.911Z,960.8668213
2023-01-06T02:17:37.806Z,960.8314209
2023-01-06T02:18:38.623Z,960.836731
2023-01-06T02:19:39.403Z,960.8526611
2023-01-06T02:20:40.284Z,960.8478394
2023-01-06T02:21:41.928Z,960.8426514
2023-01-06T02:22:42.878Z,960.8182983
2023-01-06T02:23:43.679Z,960.8150635
2023-01-06T02:24:44.489Z,960.7232666
2023-01-06T02:26:16.868Z,960.7181396
2023-01-06T02:27:18.467Z,960.7396851
2023-01-06T02:28:19.406Z,960.7450562
2023-01-06T02:29:20.173Z,960.7379761
2023-01-06T02:30:21.056Z,960.6885376
2023-01-06T02:31:21.968Z,960.6821289
2023-01-06T02:32:23.477Z,960.6695557
2023-01-06T02:33:24.367Z,960.6790771
2023-01-06T02:34:25.244Z,960.6657715
2023-01-06T02:35:26.015Z,960.6843872
2023-01-06T02:36:27.340Z,960.6620483
2023-01-06T02:37:28.331Z,960.654541
2023-01-06T02:38:29.239Z,960.6160889
2023-01-06T02:39:30.081Z,960.6402588
2023-01-06T02:40:30.918Z,960.6262207
2023-01-06T02:41:31.689Z,960.6402588
2023-01-06T02:42:32.664Z,960.6035156
2023-01-06T02:43:33.521Z,960.5993652
2023-01-06T02:44:34.432Z,960.6208496
2023-01-06T02:45:35.333Z,960.652832
2023-01-06T02:46:36.896Z,960.6168823
2023-01-06T02:47:37.674Z,960.5809326
2023-01-06T02:48:38.615Z,960.5878296
2023-01-06T02:49:39.493Z,960.5702515
2023-01-06T02:50:41.073Z,960.5376587
2023-01-06T02:51:41.764Z,960.5232544
2023-01-06T02:52:42.559Z,960.5046997
2023-01-06T02:53:43.489Z,960.5062256
2023-01-06T02:54:44.812Z,960.4543457
2023-01-06T02:56:16.942Z,960.4696045
2023-01-06T02:57:17.839Z,960.4318848
2023-01-06T02:58:18.762Z,960.3894043
2023-01-06T02:59:19.714Z,960.4387207
2023-01-06T03:00:20.658Z,960.3545532
2023-01-06T03:01:21.772Z,960.3759155
2023-01-06T03:02:22.472Z,960.359314
2023-01-06T03:03:23.241Z,960.3740845
2023-01-06T03:04:24.179Z,960.3703613
2023-01-06T03:05:25.057Z,960.3867188
2023-01-06T03:06:26.974Z,960.3331299
2023-01-06T03:07:28.193Z,960.3781128
2023-01-06T03:08:28.989Z,960.3671875
2023-01-06T03:09:29.730Z,960.3811035
2023-01-06T03:10:30.636Z,960.3945313
2023-01-06T03:11:31.552Z,960.4309082
2023-01-06T03:12:32.468Z,960.409668
2023-01-06T03:13:33.263Z,960.3972168
2023-01-06T03:14:34.042Z,960.4066162
2023-01-06T03:15:34.952Z,960.4185791
2023-01-06T03:16:36.475Z,960.4459229
2023-01-06T03:17:37.313Z,960.460083
2023-01-06T03:18:38.838Z,960.4051514
2023-01-06T03:19:39.670Z,960.4417725
2023-01-06T03:20:40.543Z,960.3963013
2023-01-06T03:21:42.408Z,960.4213867
2023-01-06T03:22:43.311Z,960.4467773
2023-01-06T03:23:44.640Z,960.4254761
2023-01-06T03:25:15.871Z,960.4325562
2023-01-06T03:26:17.503Z,960.3460693
2023-01-06T03:27:18.646Z,960.3636475
2023-01-06T03:28:19.435Z,960.322998
2023-01-06T03:29:20.259Z,960.3045044
2023-01-06T03:30:21.019Z,960.3240356
2023-01-06T03:31:21.922Z,960.2904663
2023-01-06T03:32:22.763Z,960.333252
2023-01-06T03:33:23.647Z,960.2786865
2023-01-06T03:34:24.519Z,960.3261108
2023-01-06T03:35:25.357Z,960.3203125
2023-01-06T03:36:26.918Z,960.3215332
2023-01-06T03:37:28.214Z,960.3181152
2023-01-06T03:38:29.065Z,960.3441162
2023-01-06T03:39:29.980Z,960.3353271
2023-01-06T03:40:30.824Z,960.3161011
2023-01-06T03:41:31.619Z,960.2956543
2023-01-06T03:42:36.354Z,960.2848511
2023-01-06T03:43:33.897Z,960.3289185
2023-01-06T03:44:34.828Z,960.3135986
2023-01-06T03:45:35.676Z,960.3178101
2023-01-06T03:46:37.433Z,960.3468018
2023-01-06T03:47:38.181Z,960.3311157
2023-01-06T03:48:39.060Z,960.324585
2023-01-06T03:49:39.958Z,960.3439331
2023-01-06T03:50:40.917Z,960.3106079
2023-01-06T03:51:42.270Z,960.34198
2023-01-06T03:52:43.001Z,960.3270264
2023-01-06T03:53:44.314Z,960.2496948
2023-01-06T03:55:15.631Z,960.2751465
2023-01-06T03:56:16.464Z,960.2896729
2023-01-06T03:57:17.997Z,960.3091431
2023-01-06T03:58:18.755Z,960.3070068
2023-01-06T03:59:19.512Z,960.3445435
2023-01-06T04:00:20.338Z,960.3009644
2023-01-06T04:01:21.370Z,960.3879395
2023-01-06T04:02:21.995Z,960.345459
2023-01-06T04:03:22.723Z,960.3804932
2023-01-06T04:04:23.497Z,960.3337402
2023-01-06T04:05:24.380Z,960.352356
2023-01-06T04:06:25.920Z,960.3668213
2023-01-06T04:07:26.765Z,960.3382568
2023-01-06T04:08:28.446Z,960.3393555
2023-01-06T04:09:29.163Z,960.3643188
2023-01-06T04:10:30.060Z,960.3261108
2023-01-06T04:11:30.913Z,960.2973633
2023-01-06T04:12:31.754Z,960.282959
2023-01-06T04:13:32.524Z,960.298584
2023-01-06T04:14:33.372Z,960.2749023
2023-01-06T04:15:34.125Z,960.2584229
2023-01-06T04:16:35.975Z,960.2127075
2023-01-06T04:17:37.416Z,960.1956787
2023-01-06T04:18:38.345Z,960.2128906
2023-01-06T04:19:39.122Z,960.2281494
2023-01-06T04:20:39.904Z,960.2179565
2023-01-06T04:21:41.699Z,960.2141113
2023-01-06T04:22:42.661Z,960.2184448
2023-01-06T04:23:44.004Z,960.2770386
2023-01-06T04:25:15.165Z,960.3092041
2023-01-06T04:26:15.954Z,960.2893677
2023-01-06T04:27:17.409Z,960.2789917
2023-01-06T04:28:18.354Z,960.2843628
2023-01-06T04:29:19.259Z,960.2633057
2023-01-06T04:30:19.981Z,960.2697144
2023-01-06T04:31:20.910Z,960.2893677
2023-01-06T04:32:21.748Z,960.2958374
2023-01-06T04:33:23.448Z,960.3397827
2023-01-06T04:34:24.369Z,960.3123169
2023-01-06T04:35:25.104Z,960.3465576
2023-01-06T04:36:25.917Z,960.314209
2023-01-06T04:37:27.355Z,960.3429565
2023-01-06T04:38:28.268Z,960.3085327
2023-01-06T04:39:29.113Z,960.3157959
2023-01-06T04:40:29.889Z,960.34198
2023-01-06T04:41:30.785Z,960.3075562
2023-01-06T04:42:31.555Z,960.3074951
2023-01-06T04:43:32.395Z,960.2960205
2023-01-06T04:44:33.423Z,960.3178101
2023-01-06T04:45:34.193Z,960.3364868
2023-01-06T04:46:34.918Z,960.3233032
2023-01-06T04:47:36.273Z,960.3655396
2023-01-06T04:48:37.119Z,960.3745117
2023-01-06T04:49:38.030Z,960.454895
2023-01-06T04:50:38.848Z,960.4329834
2023-01-06T04:51:40.415Z,960.4390869
2023-01-06T04:52:41.173Z,960.4696655
2023-01-06T04:53:42.016Z,960.4667969
2023-01-06T04:54:42.899Z,960.4639282
2023-01-06T04:56:14.907Z,960.4720459
2023-01-06T04:57:16.269Z,960.4439087
2023-01-06T04:58:17.019Z,960.4411621
2023-01-06T04:59:17.970Z,960.4745483
2023-01-06T05:00:18.877Z,960.4706421
2023-01-06T05:01:19.817Z,960.4689331
2023-01-06T05:02:20.403Z,960.4623413
2023-01-06T05:03:21.176Z,960.4863281
2023-01-06T05:04:22.113Z,960.4768677
2023-01-06T05:05:22.994Z,960.5042114
2023-01-06T05:06:23.833Z,960.5084229
2023-01-06T05:07:25.477Z,960.5001831
2023-01-06T05:08:26.322Z,960.4951782
2023-01-06T05:09:27.131Z,960.5250854
2023-01-06T05:10:28.169Z,960.519043
2023-01-06T05:11:29.020Z,960.5129395
2023-01-06T05:12:29.853Z,960.4932861
2023-01-06T05:13:30.643Z,960.4829102
2023-01-06T05:14:31.439Z,960.5181885
2023-01-06T05:15:32.284Z,960.4829102
2023-01-06T05:16:33.196Z,960.5026855
2023-01-06T05:17:34.904Z,960.5167236
2023-01-06T05:18:35.677Z,960.5584106
2023-01-06T05:19:36.468Z,960.5561523
2023-01-06T05:20:37.807Z,960.59375
2023-01-06T05:21:38.624Z,960.5949707
2023-01-06T05:22:40.378Z,960.6643066
2023-01-06T05:23:41.236Z,960.6576538
2023-01-06T05:24:42.041Z,960.6859131
2023-01-06T05:25:43.280Z,960.7019043
2023-01-06T05:27:15.435Z,960.7452393
2023-01-06T05:28:16.297Z,960.6870117
2023-01-06T05:29:17.103Z,960.6814575
2023-01-06T05:30:17.955Z,960.6865845
2023-01-06T05:31:19.413Z,960.6868896
2023-01-06T05:32:20.237Z,960.6872559
2023-01-06T05:33:21.133Z,960.7037354
2023-01-06T05:34:22.019Z,960.7888794
2023-01-06T05:35:22.771Z,960.7575684
2023-01-06T05:36:24.278Z,960.7467041
2023-01-06T05:37:25.994Z,960.7493896
2023-01-06T05:38:26.875Z,960.7615356
2023-01-06T05:39:27.974Z,960.8010864
2023-01-06T05:40:28.815Z,960.8170166
2023-01-06T05:41:29.722Z,960.7966309
2023-01-06T05:42:30.514Z,960.838501
2023-01-06T05:43:32.410Z,960.8005371
2023-01-06T05:44:33.359Z,960.8898315
2023-01-06T05:45:34.226Z,960.8522949
2023-01-06T05:46:35.005Z,960.8429565
2023-01-06T05:47:36.252Z,960.8947144
2023-01-06T05:48:37.194Z,960.8618164
2023-01-06T05:49:38.065Z,960.8912354
2023-01-06T05:50:39.446Z,960.9093628
2023-01-06T05:51:40.329Z,960.8927612
2023-01-06T05:52:41.057Z,960.9049072
2023-01-06T05:53:41.871Z,960.9221191
2023-01-06T05:54:43.171Z,960.9213867
2023-01-06T05:56:15.358Z,960.9802856
2023-01-06T05:57:16.919Z,960.9464111
2023-01-06T05:58:17.748Z,960.9901733
2023-01-06T05:59:18.676Z,960.9567871
2023-01-06T06:00:19.612Z,961.0046387
2023-01-06T06:01:20.467Z,960.989502
2023-01-06T06:02:21.299Z,961.0100098
2023-01-06T06:03:22.023Z,961.0223389
2023-01-06T06:04:22.772Z,960.9970093
2023-01-06T06:05:23.720Z,960.9985962
2023-01-06T06:06:24.679Z,960.998291
2023-01-06T06:07:26.420Z,961.0359497
2023-01-06T06:08:27.218Z,961.064209
2023-01-06T06:09:28.072Z,961.0443726
2023-01-06T06:10:28.935Z,961.0708008
2023-01-06T06:11:30.397Z,961.0847778
2023-01-06T06:12:31.293Z,961.105957
2023-01-06T06:13:32.041Z,961.1417236
2023-01-06T06:14:32.948Z,961.1251831
2023-01-06T06:15:33.815Z,961.1525879
2023-01-06T06:16:34.746Z,961.1378784
2023-01-06T06:17:36.542Z,961.1416626
2023-01-06T06:18:37.201Z,961.1514893
2023-01-06T06:19:38.090Z,961.1414795
2023-01-06T06:20:38.785Z,961.1588135
2023-01-06T06:21:40.403Z,961.1763916
2023-01-06T06:22:41.355Z,961.2050171
2023-01-06T06:23:42.230Z,961.1871948
2023-01-06T06:25:13.407Z,961.2224121
2023-01-06T06:26:14.276Z,961.2282715
2023-01-06T06:27:15.149Z,961.1920166
2023-01-06T06:28:16.897Z,961.2129517
2023-01-06T06:29:17.755Z,961.2254639
2023-01-06T06:30:18.577Z,961.2460938
2023-01-06T06:31:19.449Z,961.2301636
2023-01-06T06:32:20.202Z,961.2097168
2023-01-06T06:33:21.882Z,961.2341919
2023-01-06T06:34:22.728Z,961.2103271
2023-01-06T06:35:23.495Z,961.2193604
2023-01-06T06:36:24.284Z,961.2038574
2023-01-06T06:37:25.092Z,961.1907959
2023-01-06T06:38:26.894Z,961.197998
2023-01-06T06:39:27.995Z,961.1884155
2023-01-06T06:40:28.790Z,961.1274414
2023-01-06T06:41:29.560Z,961.1478271
2023-01-06T06:42:30.352Z,961.1206055
2023-01-06T06:43:31.280Z,961.0959473
2023-01-06T06:44:32.171Z,961.0756836
2023-01-06T06:45:33.053Z,961.0896606
2023-01-06T06:46:33.820Z,961.1229858
2023-01-06T06:47:35.435Z,961.1207886
2023-01-06T06:48:36.303Z,961.0861206
2023-01-06T06:49:37.090Z,961.0817261
2023-01-06T06:50:38.434Z,961.0661621
2023-01-06T06:51:39.223Z,960.9736938
2023-01-06T06:52:39.996Z,961.0979004
2023-01-06T06:53:40.821Z,961.0790405
2023-01-06T06:54:41.671Z,961.1193848
2023-01-06T06:56:13.874Z,961.1720581
2023-01-06T06:57:14.629Z,961.1569824
2023-01-06T06:58:16.264Z,961.1637573
2023-01-06T06:59:17.129Z,961.1617432
2023-01-06T07:00:18.073Z,961.1444702
2023-01-06T07:01:19.161Z,961.138916
2023-01-06T07:02:19.917Z,961.0998535
2023-01-06T07:03:20.509Z,961.1478271
2023-01-06T07:04:21.495Z,961.1760864
2023-01-06T07:05:22.193Z,961.1592407
2023-01-06T07:06:23.155Z,961.1503296
2023-01-06T07:07:23.979Z,961.2327881
2023-01-06T07:08:25.245Z,961.178772
2023-01-06T07:09:26.034Z,961.1257935
2023-01-06T07:10:26.885Z,961.0962524
2023-01-06T07:11:28.425Z,961.055603
2023-01-06T07:12:29.366Z,961.0273438
2023-01-06T07:13:30.143Z,960.9784546
2023-01-06T07:14:31.290Z,961.0103149
2023-01-06T07:15:32.293Z,961.0285645
2023-01-06T07:16:33.859Z,961.0129395
2023-01-06T07:17:34.700Z,961.0855713
2023-01-06T07:18:36.301Z,961.0767212
2023-01-06T07:19:37.067Z,961.0628052
2023-01-06T07:20:37.816Z,961.0525513
2023-01-06T07:21:39.416Z,961.034668
2023-01-06T07:22:40.402Z,961.0571899
2023-01-06T07:23:41.163Z,961.0894775
2023-01-06T07:25:12.619Z,961.0905762
2023-01-06T07:26:13.428Z,961.1221924
2023-01-06T07:27:14.291Z,961.0831299
2023-01-06T07:28:15.874Z,961.09552
2023-01-06T07:29:16.633Z,961.0779419
2023-01-06T07:30:18.378Z,961.0427246
2023-01-06T07:31:19.098Z,961.0541992
2023-01-06T07:32:19.888Z,960.9915771
2023-01-06T07:33:20.792Z,961.0203247
2023-01-06T07:34:21.630Z,961.0385742
2023-01-06T07:35:22.394Z,961.0440674
2023-01-06T07:36:23.155Z,961.0599365
2023-01-06T07:37:24.017Z,961.0596924
2023-01-06T07:38:25.865Z,961.0505981
2023-01-06T07:39:26.774Z,961.0535889
2023-01-06T07:40:27.880Z,961.0192871
2023-01-06T07:41:28.560Z,961.0708008
2023-01-06T07:42:29.414Z,961.0622559
2023-01-06T07:43:30.298Z,961.0262451
2023-01-06T07:44:31.206Z,961.0724487
2023-01-06T07:45:32.091Z,961.0278931
2023-01-06T07:46:32.840Z,961.1121826
2023-01-06T07:47:33.717Z,961.0808716
2023-01-06T07:48:35.363Z,961.1149902
2023-01-06T07:49:36.281Z,961.1553345
2023-01-06T07:50:37.145Z,961.1171875
2023-01-06T07:51:38.390Z,961.1343994
2023-01-06T07:52:39.204Z,961.1768188
2023-01-06T07:53:40.093Z,961.1229858
2023-01-06T07:54:41.010Z,961.0767212
2023-01-06T07:56:13.376Z,961.085022
2023-01-06T07:57:14.136Z,961.1154785
2023-01-06T07:58:15.933Z,961.1164551
2023-01-06T07:59:16.827Z,961.1595459
2023-01-06T08:00:17.723Z,961.2034302
2023-01-06T08:01:19.559Z,961.2120361
2023-01-06T08:02:20.232Z,961.2201538
2023-01-06T08:03:21.004Z,961.2362671
2023-01-06T08:04:21.653Z,961.2781372
2023-01-06T08:05:22.529Z,961.2260742
2023-01-06T08:06:23.408Z,961.2346191
2023-01-06T08:07:24.173Z,961.2346191
2023-01-06T08:08:25.886Z,961.2631226
2023-01-06T08:09:26.631Z,961.2493896
2023-01-06T08:10:27.767Z,961.3068237
2023-01-06T08:11:28.722Z,961.3004761
2023-01-06T08:12:29.479Z,961.2921143
2023-01-06T08:13:30.241Z,961.2756348
2023-01-06T08:14:31.805Z,961.3059082
2023-01-06T08:15:32.738Z,961.3095093
2023-01-06T08:16:33.621Z,961.2902832
2023-01-06T08:17:34.481Z,961.3276367
2023-01-06T08:18:35.798Z,961.342041
2023-01-06T08:19:36.542Z,961.3320313
2023-01-06T08:20:37.914Z,961.4032593
2023-01-06T08:21:39.511Z,961.3927612
2023-01-06T08:22:40.434Z,961.4133301
2023-01-06T08:24:11.935Z,961.4564819
2023-01-06T08:25:12.808Z,961.472168
2023-01-06T08:26:13.754Z,961.4547119
2023-01-06T08:27:14.630Z,961.4671631
2023-01-06T08:28:16.476Z,961.4824829
2023-01-06T08:29:17.342Z,961.4998169
2023-01-06T08:30:18.147Z,961.492981
2023-01-06T08:31:19.044Z,961.5061035
2023-01-06T08:32:19.914Z,961.4985352
2023-01-06T08:33:20.825Z,961.5229492
2023-01-06T08:34:21.700Z,961.5075073
2023-01-06T08:35:22.620Z,961.5072021
2023-01-06T08:36:23.539Z,961.5195313
2023-01-06T08:37:24.566Z,961.5076294
2023-01-06T08:38:25.902Z,961.5625
2023-01-06T08:39:27.464Z,961.5449219
2023-01-06T08:40:28.303Z,961.5918579
2023-01-06T08:41:29.100Z,961.6624146
2023-01-06T08:42:29.956Z,961.6188965
2023-01-06T08:43:30.936Z,961.6647949
2023-01-06T08:44:31.879Z,961.678894
2023-01-06T08:45:32.742Z,961.6455688
2023-01-06T08:46:33.650Z,961.6462402
2023-01-06T08:47:34.608Z,961.6539917
2023-01-06T08:48:36.441Z,961.7293701
2023-01-06T08:49:37.329Z,961.7451782
2023-01-06T08:50:38.174Z,961.708252
2023-01-06T08:51:39.920Z,961.7153931
2023-01-06T08:52:41.160Z,961.786499
2023-01-06T08:54:12.309Z,961.774231
2023-01-06T08:55:13.129Z,961.7929688
2023-01-06T08:56:13.973Z,961.8031006
2023-01-06T08:57:14.835Z,961.8108521
2023-01-06T08:58:15.808Z,961.8078003
2023-01-06T08:59:17.371Z,961.8305664
2023-01-06T09:00:18.283Z,961.8289185
2023-01-06T09:01:19.262Z,961.8222046
2023-01-06T09:02:20.039Z,961.8395386
2023-01-06T09:03:21.334Z,961.8670044
2023-01-06T09:04:22.068Z,961.8446655
2023-01-06T09:05:22.881Z,961.8900146
2023-01-06T09:06:23.724Z,961.8908081
2023-01-06T09:07:24.566Z,961.8869629
2023-01-06T09:08:25.925Z,961.8900146
2023-01-06T09:09:26.760Z,961.9308472
2023-01-06T09:10:27.856Z,961.9249878
2023-01-06T09:11:28.809Z,961.883606
2023-01-06T09:12:29.705Z,961.9185181
2023-01-06T09:13:30.471Z,961.9157715
2023-01-06T09:14:31.317Z,961.8970337
2023-01-06T09:15:32.211Z,961.9207764
2023-01-06T09:16:32.996Z,961.8577881
2023-01-06T09:17:33.750Z,961.8707886
2023-01-06T09:18:34.593Z,961.8490601
2023-01-06T09:19:35.415Z,961.8796997
2023-01-06T09:20:36.310Z,961.8914185
2023-01-06T09:21:37.137Z,961.8704834
2023-01-06T09:22:38.059Z,961.8701782
2023-01-06T09:23:38.964Z,961.8894653
2023-01-06T09:24:39.581Z,961.9281006
2023-01-06T09:25:40.879Z,961.9678345
2023-01-06T09:27:12.194Z,961.9734497
2023-01-06T09:28:13.162Z,962
2023-01-06T09:29:14.968Z,961.984375
2023-01-06T09:30:15.719Z,961.9640503
2023-01-06T09:31:17.498Z,961.9700928
2023-01-06T09:32:18.376Z,961.9456787
2023-01-06T09:33:19.290Z,961.9319458
2023-01-06T09:34:20.157Z,961.9042358
2023-01-06T09:35:20.870Z,961.901123
2023-01-06T09:36:21.747Z,961.9081421
2023-01-06T09:37:22.546Z,961.8842163
2023-01-06T09:38:23.410Z,961.9016113
2023-01-06T09:39:24.891Z,961.8817139
2023-01-06T09:40:25.690Z,961.8842163
2023-01-06T09:41:26.567Z,961.8718872
2023-01-06T09:42:27.670Z,961.8510742
2023-01-06T09:43:28.593Z,961.8917847
2023-01-06T09:44:29.439Z,961.8753052
2023-01-06T09:45:30.157Z,961.8401489
2023-01-06T09:46:30.914Z,961.8100586
2023-01-06T09:47:31.715Z,961.821167
2023-01-06T09:48:32.640Z,961.7851563
2023-01-06T09:49:34.427Z,961.7768555
2023-01-06T09:50:35.263Z,961.7615356
2023-01-06T09:51:36.931Z,961.7943726
2023-01-06T09:52:37.784Z,961.7923584
2023-01-06T09:53:38.738Z,961.7804565
2023-01-06T09:54:39.802Z,961.8180542
2023-01-06T09:56:11.145Z,961.8275146
2023-01-06T09:57:12.909Z,961.8228149
2023-01-06T09:58:13.682Z,961.7888794
2023-01-06T09:59:15.265Z,961.774353
2023-01-06T10:00:18.338Z,961.7496338
2023-01-06T10:01:17.193Z,961.7432861
2023-01-06T10:02:17.941Z,961.8029785
2023-01-06T10:03:18.716Z,961.803894
2023-01-06T10:04:19.634Z,961.7748413
2023-01-06T10:05:20.666Z,961.821106
2023-01-06T10:06:21.498Z,961.8291626
2023-01-06T10:07:22.214Z,961.7971802
2023-01-06T10:08:23.031Z,961.8062744
2023-01-06T10:09:24.866Z,961.7802124
2023-01-06T10:10:25.825Z,961.7965698
2023-01-06T10:11:26.635Z,961.7826538
2023-01-06T10:12:27.354Z,961.7836914
2023-01-06T10:13:28.078Z,961.8082886
2023-01-06T10:14:28.881Z,961.7254639
2023-01-06T10:15:29.801Z,961.7384644
2023-01-06T10:16:30.688Z,961.694458
2023-01-06T10:17:31.480Z,961.6576538
2023-01-06T10:18:32.801Z,961.6716919
2023-01-06T10:19:34.282Z,961.6018677
2023-01-06T10:20:35.155Z,961.5982056
2023-01-06T10:21:36.000Z,961.5959473
2023-01-06T10:22:37.356Z,961.6017456
2023-01-06T10:23:38.064Z,961.5866699
2023-01-06T10:24:38.834Z,961.5858765
2023-01-06T10:25:40.096Z,961.6509399
2023-01-06T10:27:11.324Z,961.6702881
2023-01-06T10:28:12.200Z,961.6140747
2023-01-06T10:29:13.907Z,961.6542358
2023-01-06T10:30:14.705Z,961.6450195
2023-01-06T10:31:15.905Z,961.680603
2023-01-06T10:32:16.768Z,961.6347046
2023-01-06T10:33:17.592Z,961.6877441
2023-01-06T10:34:18.425Z,961.7237549
2023-01-06T10:35:19.194Z,961.696228
2023-01-06T10:36:20.057Z,961.6785278
2023-01-06T10:37:20.935Z,961.6818848
2023-01-06T10:38:21.815Z,961.6878052
2023-01-06T10:39:23.380Z,961.6451416
2023-01-06T10:40:24.214Z,961.6796875
2023-01-06T10:41:25.140Z,961.6361084
2023-01-06T10:42:26.045Z,961.6184082
2023-01-06T10:43:28.132Z,961.6343994
2023-01-06T10:44:28.918Z,961.62677
2023-01-06T10:45:29.727Z,961.6002197
2023-01-06T10:46:30.654Z,961.6105347
2023-01-06T10:47:31.491Z,961.6027832
2023-01-06T10:48:32.296Z,961.546936
2023-01-06T10:49:33.853Z,961.5454712
2023-01-06T10:50:34.607Z,961.5129395
2023-01-06T10:51:36.357Z,961.5145264
2023-01-06T10:52:37.179Z,961.4942017
2023-01-06T10:53:38.107Z,961.4707031
2023-01-06T10:54:38.977Z,961.4621582
2023-01-06T10:56:10.945Z,961.4645386
2023-01-06T10:57:11.731Z,961.4890747
2023-01-06T10:58:12.601Z,961.4363403
2023-01-06T10:59:14.485Z,961.4271851
2023-01-06T11:00:15.428Z,961.4095459
2023-01-06T11:01:16.378Z,961.425293
2023-01-06T11:02:17.163Z,961.4414063
2023-01-06T11:03:32.941Z,961.44104
2023-01-06T11:04:19.051Z,961.3916626
2023-01-06T11:05:19.936Z,961.3853149
2023-01-06T11:06:20.738Z,961.3879395
2023-01-06T11:07:21.606Z,961.3858643
2023-01-06T11:08:23.444Z,961.3261108
2023-01-06T11:09:24.934Z,961.315918
2023-01-06T11:10:25.777Z,961.3209229
2023-01-06T11:11:28.424Z,961.3625488